createdAt,value
2017-05-20T00:00:45.060Z,22.51
2017-05-20T00:01:44.774Z,22.57
2017-05-20T00:02:45.120Z,22.54
2017-05-20T00:03:45.143Z,22.45
2017-05-20T00:04:44.864Z,22.39
2017-05-20T00:05:45.208Z,22.43
2017-05-20T00:06:44.600Z,22.42
2017-05-20T00:07:45.254Z,22.42
2017-05-20T00:08:45.278Z,22.46
2017-05-20T00:09:44.993Z,22.45
2017-05-20T00:10:45.021Z,22.51
2017-05-20T00:11:45.361Z,22.54
2017-05-20T00:12:45.385Z,22.51
2017-05-20T00:13:45.102Z,22.49
2017-05-20T00:14:45.136Z,22.52
2017-05-20T00:15:45.152Z,22.49
2017-05-20T00:16:45.186Z,22.52
2017-05-20T00:17:45.208Z,22.52
2017-05-20T00:18:45.234Z,22.52
2017-05-20T00:19:44.951Z,22.52
2017-05-20T00:20:45.291Z,22.47
2017-05-20T00:21:45.630Z,22.55
2017-05-20T00:22:45.655Z,22.54
2017-05-20T00:23:45.677Z,22.55
2017-05-20T00:24:45.087Z,22.47
2017-05-20T00:25:45.743Z,22.54
2017-05-20T00:26:45.448Z,22.4
2017-05-20T00:27:45.493Z,22.43
2017-05-20T00:28:45.819Z,22.45
2017-05-20T00:29:45.855Z,22.43
2017-05-20T00:30:45.871Z,22.55
2017-05-20T00:31:45.900Z,22.51
2017-05-20T00:32:45.925Z,22.47
2017-05-20T00:33:45.953Z,22.4
2017-05-20T00:34:45.664Z,22.39
2017-05-20T00:35:46.020Z,22.45
2017-05-20T00:36:46.037Z,22.37
2017-05-20T00:37:45.749Z,22.42
2017-05-20T00:38:46.289Z,22.43
2017-05-20T00:39:46.118Z,22.43
2017-05-20T00:40:45.831Z,22.47
2017-05-20T00:41:45.860Z,22.47
2017-05-20T00:42:45.885Z,22.42
2017-05-20T00:43:46.112Z,22.39
2017-05-20T00:44:46.246Z,22.42
2017-05-20T00:45:46.275Z,22.43
2017-05-20T00:46:46.306Z,22.39
2017-05-20T00:47:46.021Z,22.43
2017-05-20T00:48:46.257Z,22.37
2017-05-20T00:49:46.385Z,22.45
2017-05-20T00:50:46.418Z,22.37
2017-05-20T00:51:46.443Z,22.4
2017-05-20T00:52:46.521Z,22.42
2017-05-20T00:53:46.746Z,22.4
2017-05-20T00:54:46.513Z,22.4
2017-05-20T00:55:46.546Z,22.45
2017-05-20T00:56:46.264Z,22.42
2017-05-20T00:57:46.304Z,22.4
2017-05-20T00:58:46.526Z,22.4
2017-05-20T00:59:46.342Z,22.46
2017-05-20T01:00:46.687Z,22.51
2017-05-20T01:01:46.763Z,22.51
2017-05-20T01:02:46.741Z,22.47
2017-05-20T01:03:46.706Z,22.52
2017-05-20T01:04:46.790Z,22.49
2017-05-20T01:05:46.820Z,22.57
2017-05-20T01:06:46.530Z,22.51
2017-05-20T01:07:46.867Z,22.51
2017-05-20T01:08:46.784Z,22.49
2017-05-20T01:09:46.921Z,22.49
2017-05-20T01:10:46.954Z,22.58
2017-05-20T01:11:46.670Z,22.61
2017-05-20T01:12:47.011Z,22.6
2017-05-20T01:13:46.922Z,22.61
2017-05-20T01:14:46.441Z,22.64
2017-05-20T01:15:47.089Z,22.49
2017-05-20T01:16:47.122Z,22.65
2017-05-20T01:17:47.145Z,22.62
2017-05-20T01:18:47.372Z,22.62
2017-05-20T01:19:46.888Z,22.61
2017-05-20T01:20:47.226Z,22.62
2017-05-20T01:21:47.260Z,22.52
2017-05-20T01:22:46.967Z,22.55
2017-05-20T01:23:47.509Z,22.46
2017-05-20T01:24:47.338Z,22.46
2017-05-20T01:25:47.354Z,22.47
2017-05-20T01:26:47.389Z,22.47
2017-05-20T01:27:47.104Z,22.46
2017-05-20T01:28:47.020Z,22.57
2017-05-20T01:29:47.465Z,22.46
2017-05-20T01:30:47.179Z,22.49
2017-05-20T01:31:47.523Z,22.55
2017-05-20T01:32:47.240Z,22.51
2017-05-20T01:33:47.780Z,22.49
2017-05-20T01:34:47.603Z,22.54
2017-05-20T01:35:47.634Z,22.46
2017-05-20T01:36:47.658Z,22.46
2017-05-20T01:37:47.683Z,22.54
2017-05-20T01:38:47.921Z,22.49
2017-05-20T01:39:47.750Z,22.51
2017-05-20T01:40:47.765Z,22.54
2017-05-20T01:41:47.798Z,22.57
2017-05-20T01:42:47.511Z,22.49
2017-05-20T01:43:48.048Z,22.54
2017-05-20T01:44:47.564Z,22.61
2017-05-20T01:45:47.596Z,22.52
2017-05-20T01:46:47.307Z,22.55
2017-05-20T01:47:47.671Z,22.51
2017-05-20T01:48:47.876Z,22.52
2017-05-20T01:49:48.018Z,22.55
2017-05-20T01:50:48.048Z,22.64
2017-05-20T01:51:47.753Z,22.55
2017-05-20T01:52:47.783Z,22.51
2017-05-20T01:53:48.072Z,22.52
2017-05-20T01:54:48.148Z,22.57
2017-05-20T01:55:47.864Z,22.49
2017-05-20T01:56:47.573Z,22.54
2017-05-20T01:57:48.235Z,22.52
2017-05-20T01:58:48.454Z,22.61
2017-05-20T01:59:47.656Z,22.51
2017-05-20T02:00:48.317Z,22.46
2017-05-20T02:01:48.340Z,22.51
2017-05-20T02:02:48.054Z,22.57
2017-05-20T02:03:48.594Z,22.6
2017-05-20T02:04:47.795Z,22.55
2017-05-20T02:05:48.132Z,22.61
2017-05-20T02:06:48.467Z,22.51
2017-05-20T02:07:48.506Z,22.52
2017-05-20T02:08:48.782Z,22.57
2017-05-20T02:09:48.555Z,22.52
2017-05-20T02:10:48.269Z,22.54
2017-05-20T02:11:48.598Z,22.58
2017-05-20T02:12:48.634Z,22.49
2017-05-20T02:13:48.555Z,22.55
2017-05-20T02:14:48.383Z,22.47
2017-05-20T02:15:48.721Z,22.49
2017-05-20T02:16:48.433Z,22.49
2017-05-20T02:17:48.458Z,22.47
2017-05-20T02:18:48.378Z,22.6
2017-05-20T02:19:48.822Z,22.6
2017-05-20T02:20:48.848Z,22.58
2017-05-20T02:21:48.566Z,22.52
2017-05-20T02:22:48.905Z,22.6
2017-05-20T02:23:49.134Z,22.46
2017-05-20T02:24:48.647Z,22.51
2017-05-20T02:25:48.680Z,22.49
2017-05-20T02:26:49.024Z,22.62
2017-05-20T02:27:49.042Z,22.54
2017-05-20T02:28:49.275Z,22.6
2017-05-20T02:29:49.097Z,22.57
2017-05-20T02:30:48.812Z,22.58
2017-05-20T02:31:49.152Z,22.47
2017-05-20T02:32:48.558Z,22.52
2017-05-20T02:33:48.893Z,22.57
2017-05-20T02:34:48.920Z,22.49
2017-05-20T02:35:49.260Z,22.49
2017-05-20T02:36:49.285Z,22.47
2017-05-20T02:37:49.322Z,22.46
2017-05-20T02:38:49.337Z,22.52
2017-05-20T02:39:49.054Z,22.52
2017-05-20T02:40:49.079Z,22.49
2017-05-20T02:41:49.109Z,22.49
2017-05-20T02:42:49.444Z,22.57
2017-05-20T02:43:49.464Z,22.51
2017-05-20T02:44:49.506Z,22.61
2017-05-20T02:45:49.527Z,22.52
2017-05-20T02:46:49.556Z,22.51
2017-05-20T02:47:49.578Z,22.49
2017-05-20T02:48:49.609Z,22.51
2017-05-20T02:49:49.634Z,22.49
2017-05-20T02:50:49.660Z,22.55
2017-05-20T02:51:49.687Z,22.49
2017-05-20T02:52:49.721Z,22.54
2017-05-20T02:53:49.750Z,22.49
2017-05-20T02:54:49.461Z,22.49
2017-05-20T02:55:49.802Z,22.49
2017-05-20T02:56:49.828Z,22.57
2017-05-20T02:57:49.852Z,22.47
2017-05-20T02:58:49.883Z,22.52
2017-05-20T02:59:49.598Z,22.4
2017-05-20T03:00:49.931Z,22.55
2017-05-20T03:01:49.962Z,22.51
2017-05-20T03:02:49.988Z,22.52
2017-05-20T03:03:49.703Z,22.55
2017-05-20T03:04:50.047Z,22.57
2017-05-20T03:05:50.067Z,22.51
2017-05-20T03:06:50.100Z,22.51
2017-05-20T03:07:50.125Z,22.49
2017-05-20T03:08:49.837Z,22.43
2017-05-20T03:09:50.178Z,22.47
2017-05-20T03:10:50.207Z,22.43
2017-05-20T03:11:49.919Z,22.51
2017-05-20T03:12:50.260Z,22.49
2017-05-20T03:13:50.275Z,22.42
2017-05-20T03:14:50.318Z,22.36
2017-05-20T03:15:50.339Z,22.43
2017-05-20T03:16:50.383Z,22.43
2017-05-20T03:17:50.396Z,22.51
2017-05-20T03:18:50.101Z,22.39
2017-05-20T03:19:50.461Z,22.45
2017-05-20T03:20:50.477Z,22.46
2017-05-20T03:21:50.515Z,22.42
2017-05-20T03:22:50.232Z,22.42
2017-05-20T03:23:50.616Z,22.45
2017-05-20T03:24:50.586Z,22.4
2017-05-20T03:25:50.301Z,22.4
2017-05-20T03:26:50.330Z,22.42
2017-05-20T03:27:50.045Z,22.4
2017-05-20T03:28:50.693Z,22.37
2017-05-20T03:29:50.405Z,22.42
2017-05-20T03:30:50.738Z,22.45
2017-05-20T03:31:50.807Z,22.39
2017-05-20T03:32:50.804Z,22.31
2017-05-20T03:33:50.515Z,22.42
2017-05-20T03:34:50.910Z,22.27
2017-05-20T03:35:50.884Z,22.27
2017-05-20T03:36:50.599Z,22.35
2017-05-20T03:37:50.935Z,22.27
2017-05-20T03:38:50.658Z,22.25
2017-05-20T03:39:50.993Z,22.3
2017-05-20T03:40:50.706Z,22.27
2017-05-20T03:41:51.047Z,22.3
2017-05-20T03:42:50.449Z,22.33
2017-05-20T03:43:51.100Z,22.28
2017-05-20T03:44:51.121Z,22.24
2017-05-20T03:45:51.154Z,22.28
2017-05-20T03:46:51.183Z,22.28
2017-05-20T03:47:50.895Z,22.3
2017-05-20T03:48:51.244Z,22.25
2017-05-20T03:49:51.514Z,22.28
2017-05-20T03:50:51.290Z,22.27
2017-05-20T03:51:50.999Z,22.25
2017-05-20T03:52:51.028Z,22.39
2017-05-20T03:53:51.058Z,22.37
2017-05-20T03:54:51.282Z,22.28
2017-05-20T03:55:51.114Z,22.39
2017-05-20T03:56:51.137Z,22.4
2017-05-20T03:57:51.171Z,22.25
2017-05-20T03:58:51.508Z,22.27
2017-05-20T03:59:51.421Z,22.33
2017-05-20T04:00:51.562Z,22.31
2017-05-20T04:01:51.271Z,22.28
2017-05-20T04:02:51.609Z,22.3
2017-05-20T04:03:51.641Z,22.24
2017-05-20T04:04:51.869Z,22.22
2017-05-20T04:05:51.693Z,22.24
2017-05-20T04:06:51.718Z,22.24
2017-05-20T04:07:51.747Z,22.17
2017-05-20T04:08:51.780Z,22.15
2017-05-20T04:09:51.996Z,22.22
2017-05-20T04:10:51.832Z,22.18
2017-05-20T04:11:51.847Z,22.18
2017-05-20T04:12:51.259Z,22.21
2017-05-20T04:13:51.905Z,22.21
2017-05-20T04:14:52.136Z,22.27
2017-05-20T04:15:51.960Z,22.31
2017-05-20T04:16:51.673Z,22.31
2017-05-20T04:17:52.018Z,22.24
2017-05-20T04:18:52.045Z,22.31
2017-05-20T04:19:52.282Z,22.27
2017-05-20T04:20:52.088Z,22.35
2017-05-20T04:21:51.809Z,22.25
2017-05-20T04:22:52.151Z,22.3
2017-05-20T04:23:51.868Z,22.3
2017-05-20T04:24:52.090Z,22.37
2017-05-20T04:25:51.912Z,22.37
2017-05-20T04:26:51.946Z,22.36
2017-05-20T04:27:51.976Z,22.3
2017-05-20T04:28:52.311Z,22.39
2017-05-20T04:29:52.234Z,22.37
2017-05-20T04:30:52.372Z,22.39
2017-05-20T04:31:52.082Z,22.28
2017-05-20T04:32:52.107Z,22.27
2017-05-20T04:33:52.139Z,22.31
2017-05-20T04:34:52.414Z,22.39
2017-05-20T04:35:52.503Z,22.36
2017-05-20T04:36:52.213Z,22.36
2017-05-20T04:37:52.554Z,22.37
2017-05-20T04:38:52.587Z,22.37
2017-05-20T04:39:52.859Z,22.33
2017-05-20T04:40:52.636Z,22.4
2017-05-20T04:41:52.669Z,22.35
2017-05-20T04:42:52.688Z,22.3
2017-05-20T04:43:52.412Z,22.24
2017-05-20T04:44:52.991Z,22.3
2017-05-20T04:45:52.774Z,22.27
2017-05-20T04:46:52.789Z,22.28
2017-05-20T04:47:52.831Z,22.33
2017-05-20T04:48:52.855Z,22.28
2017-05-20T04:49:52.762Z,22.24
2017-05-20T04:50:52.591Z,22.3
2017-05-20T04:51:52.942Z,22.35
2017-05-20T04:52:52.645Z,22.27
2017-05-20T04:53:52.675Z,22.24
2017-05-20T04:54:53.212Z,22.27
2017-05-20T04:55:53.039Z,22.28
2017-05-20T04:56:53.063Z,22.39
2017-05-20T04:57:53.092Z,22.36
2017-05-20T04:58:53.121Z,22.25
2017-05-20T04:59:53.351Z,22.31
2017-05-20T05:00:53.167Z,22.37
2017-05-20T05:01:53.200Z,22.36
2017-05-20T05:02:52.917Z,22.25
2017-05-20T05:03:53.255Z,22.42
2017-05-20T05:04:53.532Z,22.39
2017-05-20T05:05:53.325Z,22.37
2017-05-20T05:06:53.340Z,22.39
2017-05-20T05:07:53.052Z,22.39
2017-05-20T05:08:53.450Z,22.43
2017-05-20T05:09:53.617Z,22.36
2017-05-20T05:10:53.452Z,22.37
2017-05-20T05:11:53.472Z,22.4
2017-05-20T05:12:53.501Z,22.37
2017-05-20T05:13:53.531Z,22.39
2017-05-20T05:14:53.442Z,22.4
2017-05-20T05:15:53.267Z,22.43
2017-05-20T05:16:53.297Z,22.39
2017-05-20T05:17:53.629Z,22.39
2017-05-20T05:18:53.350Z,22.36
2017-05-20T05:19:53.890Z,22.4
2017-05-20T05:20:53.400Z,22.4
2017-05-20T05:21:53.429Z,22.39
2017-05-20T05:22:53.761Z,22.4
2017-05-20T05:23:53.486Z,22.35
2017-05-20T05:24:54.021Z,22.35
2017-05-20T05:25:53.859Z,22.36
2017-05-20T05:26:53.876Z,22.39
2017-05-20T05:27:53.909Z,22.31
2017-05-20T05:28:53.936Z,22.37
2017-05-20T05:29:53.959Z,22.39
2017-05-20T05:30:53.983Z,22.33
2017-05-20T05:31:53.700Z,22.25
2017-05-20T05:32:54.037Z,22.24
2017-05-20T05:33:54.070Z,22.25
2017-05-20T05:34:54.099Z,22.36
2017-05-20T05:35:54.118Z,22.33
2017-05-20T05:36:54.146Z,22.3
2017-05-20T05:37:53.852Z,22.39
2017-05-20T05:38:54.201Z,22.37
2017-05-20T05:39:54.229Z,22.27
2017-05-20T05:40:53.938Z,22.24
2017-05-20T05:41:54.284Z,22.33
2017-05-20T05:42:54.306Z,22.33
2017-05-20T05:43:53.708Z,22.4
2017-05-20T05:44:54.360Z,22.33
2017-05-20T05:45:54.389Z,22.3
2017-05-20T05:46:54.427Z,22.25
2017-05-20T05:47:54.446Z,22.24
2017-05-20T05:48:54.477Z,22.27
2017-05-20T05:49:54.502Z,22.28
2017-05-20T05:50:54.527Z,22.27
2017-05-20T05:51:54.239Z,22.27
2017-05-20T05:52:54.585Z,22.28
2017-05-20T05:53:54.601Z,22.28
2017-05-20T05:54:54.638Z,22.33
2017-05-20T05:55:54.658Z,22.37
2017-05-20T05:56:54.375Z,22.24
2017-05-20T05:57:54.720Z,22.27
2017-05-20T05:58:54.737Z,22.37
2017-05-20T05:59:54.465Z,22.33
2017-05-20T06:00:54.486Z,22.22
2017-05-20T06:01:54.510Z,22.3
2017-05-20T06:02:54.539Z,22.27
2017-05-20T06:03:54.560Z,22.36
2017-05-20T06:04:54.966Z,22.27
2017-05-20T06:05:54.931Z,22.37
2017-05-20T06:06:54.650Z,22.37
2017-05-20T06:07:54.980Z,22.37
2017-05-20T06:08:55.012Z,22.45
2017-05-20T06:09:54.722Z,22.35
2017-05-20T06:10:55.264Z,22.4
2017-05-20T06:11:55.090Z,22.49
2017-05-20T06:12:55.125Z,22.51
2017-05-20T06:13:55.144Z,22.54
2017-05-20T06:14:54.853Z,22.46
2017-05-20T06:15:55.398Z,22.4
2017-05-20T06:16:55.228Z,22.49
2017-05-20T06:17:55.266Z,22.51
2017-05-20T06:18:54.974Z,22.52
2017-05-20T06:19:54.998Z,22.58
2017-05-20T06:20:55.594Z,22.62
2017-05-20T06:21:55.357Z,22.62
2017-05-20T06:22:55.391Z,22.58
2017-05-20T06:23:55.417Z,22.58
2017-05-20T06:24:55.447Z,22.62
2017-05-20T06:25:55.669Z,22.58
2017-05-20T06:26:55.498Z,22.57
2017-05-20T06:27:55.527Z,22.65
2017-05-20T06:28:55.243Z,22.65
2017-05-20T06:29:55.573Z,22.58
2017-05-20T06:30:55.793Z,22.62
2017-05-20T06:31:55.634Z,22.68
2017-05-20T06:32:55.663Z,22.67
2017-05-20T06:33:55.689Z,22.7
2017-05-20T06:34:55.727Z,22.65
2017-05-20T06:35:55.624Z,22.6
2017-05-20T06:36:55.461Z,22.62
2017-05-20T06:37:55.795Z,22.62
2017-05-20T06:38:55.511Z,22.62
2017-05-20T06:39:55.844Z,22.64
2017-05-20T06:40:56.076Z,22.57
2017-05-20T06:41:55.905Z,22.65
2017-05-20T06:42:55.619Z,22.62
2017-05-20T06:43:55.957Z,22.65
2017-05-20T06:44:55.979Z,22.6
2017-05-20T06:45:55.892Z,22.64
2017-05-20T06:46:56.032Z,22.62
2017-05-20T06:47:56.072Z,22.64
2017-05-20T06:48:56.099Z,22.62
2017-05-20T06:49:56.113Z,22.64
2017-05-20T06:50:56.032Z,22.6
2017-05-20T06:51:56.190Z,22.64
2017-05-20T06:52:56.203Z,22.54
2017-05-20T06:53:55.602Z,22.54
2017-05-20T06:54:55.955Z,22.52
2017-05-20T06:55:56.476Z,22.49
2017-05-20T06:56:56.307Z,22.51
2017-05-20T06:57:56.338Z,22.54
2017-05-20T06:58:56.053Z,22.52
2017-05-20T06:59:56.078Z,22.49
2017-05-20T07:00:56.356Z,22.51
2017-05-20T07:01:56.446Z,22.49
2017-05-20T07:02:56.473Z,22.51
2017-05-20T07:03:56.500Z,22.55
2017-05-20T07:04:56.227Z,22.47
2017-05-20T07:05:56.752Z,22.43
2017-05-20T07:06:56.264Z,22.37
2017-05-20T07:07:56.614Z,22.51
2017-05-20T07:08:56.639Z,22.37
2017-05-20T07:09:56.663Z,22.52
2017-05-20T07:10:56.890Z,22.46
2017-05-20T07:11:56.717Z,22.61
2017-05-20T07:12:56.737Z,22.49
2017-05-20T07:13:56.775Z,22.61
2017-05-20T07:14:56.795Z,22.62
2017-05-20T07:15:57.023Z,22.61
2017-05-20T07:16:56.546Z,22.62
2017-05-20T07:17:56.564Z,22.54
2017-05-20T07:18:56.910Z,22.62
2017-05-20T07:19:56.940Z,22.61
2017-05-20T07:20:56.603Z,22.57
2017-05-20T07:21:56.984Z,22.49
2017-05-20T07:22:57.013Z,22.52
2017-05-20T07:23:57.042Z,22.52
2017-05-20T07:24:56.754Z,22.42
2017-05-20T07:25:57.295Z,22.46
2017-05-20T07:26:57.125Z,22.52
2017-05-20T07:27:57.150Z,22.46
2017-05-20T07:28:56.862Z,22.47
2017-05-20T07:29:57.202Z,22.47
2017-05-20T07:30:57.431Z,22.57
2017-05-20T07:31:56.940Z,22.6
2017-05-20T07:32:56.674Z,22.61
2017-05-20T07:33:57.313Z,22.54
2017-05-20T07:34:57.022Z,22.49
2017-05-20T07:35:57.243Z,22.46
2017-05-20T07:36:57.076Z,22.58
2017-05-20T07:37:57.113Z,22.47
2017-05-20T07:38:57.144Z,22.61
2017-05-20T07:39:57.172Z,22.61
2017-05-20T07:40:57.704Z,22.55
2017-05-20T07:41:56.901Z,22.64
2017-05-20T07:42:57.244Z,22.6
2017-05-20T07:43:56.959Z,22.58
2017-05-20T07:44:57.299Z,22.72
2017-05-20T07:45:57.832Z,22.65
2017-05-20T07:46:57.348Z,22.72
2017-05-20T07:47:57.693Z,22.79
2017-05-20T07:48:57.405Z,22.76
2017-05-20T07:49:57.745Z,22.73
2017-05-20T07:50:57.971Z,22.73
2017-05-20T07:51:57.796Z,22.75
2017-05-20T07:52:57.833Z,22.7
2017-05-20T07:53:57.853Z,22.76
2017-05-20T07:54:57.898Z,22.76
2017-05-20T07:55:58.223Z,22.8
2017-05-20T07:56:58.044Z,22.83
2017-05-20T07:57:57.964Z,22.86
2017-05-20T07:58:57.989Z,22.86
2017-05-20T07:59:58.019Z,22.9
2017-05-20T08:00:57.986Z,22.85
2017-05-20T08:01:58.071Z,22.9
2017-05-20T08:02:57.786Z,22.91
2017-05-20T08:03:58.134Z,22.94
2017-05-20T08:04:58.155Z,22.9
2017-05-20T08:05:57.806Z,22.95
2017-05-20T08:06:58.215Z,22.92
2017-05-20T08:07:57.916Z,23.01
2017-05-20T08:08:58.273Z,23.02
2017-05-20T08:09:57.983Z,22.95
2017-05-20T08:10:58.557Z,22.95
2017-05-20T08:11:58.339Z,22.97
2017-05-20T08:12:58.397Z,23.01
2017-05-20T08:13:58.102Z,22.91
2017-05-20T08:14:58.430Z,23.02
2017-05-20T08:15:58.659Z,22.92
2017-05-20T08:16:58.479Z,22.97
2017-05-20T08:17:58.511Z,22.98
2017-05-20T08:18:58.223Z,22.95
2017-05-20T08:19:58.564Z,22.95
2017-05-20T08:20:58.845Z,22.92
2017-05-20T08:21:58.620Z,22.94
2017-05-20T08:22:58.645Z,23.07
2017-05-20T08:23:58.675Z,23.05
2017-05-20T08:24:58.698Z,22.94
2017-05-20T08:25:59.034Z,23
2017-05-20T08:26:58.758Z,23.01
2017-05-20T08:27:58.776Z,22.98
2017-05-20T08:28:58.815Z,23.04
2017-05-20T08:29:58.838Z,23.07
2017-05-20T08:30:59.066Z,23.04
2017-05-20T08:31:58.895Z,23.05
2017-05-20T08:32:58.606Z,23.07
2017-05-20T08:33:58.948Z,23.02
2017-05-20T08:34:58.978Z,23.02
2017-05-20T08:35:58.936Z,23.04
2017-05-20T08:36:58.406Z,23.02
2017-05-20T08:37:58.743Z,23.05
2017-05-20T08:38:58.454Z,23.02
2017-05-20T08:39:58.800Z,23.02
2017-05-20T08:40:59.394Z,23
2017-05-20T08:41:59.165Z,23.01
2017-05-20T08:42:59.191Z,23.02
2017-05-20T08:43:59.218Z,23.04
2017-05-20T08:44:59.249Z,23.05
2017-05-20T08:45:58.962Z,23.1
2017-05-20T08:46:59.302Z,23.05
2017-05-20T08:47:59.329Z,23.07
2017-05-20T08:48:59.045Z,23.12
2017-05-20T08:49:58.757Z,23.1
2017-05-20T08:50:59.414Z,23.17
2017-05-20T08:51:59.437Z,23.1
2017-05-20T08:52:59.155Z,23.16
2017-05-20T08:53:59.500Z,23.19
2017-05-20T08:54:59.213Z,23.09
2017-05-20T08:55:59.242Z,23.22
2017-05-20T08:56:59.580Z,23.17
2017-05-20T08:57:59.287Z,23.13
2017-05-20T08:58:59.321Z,23.13
2017-05-20T08:59:59.660Z,23.13
2017-05-20T09:00:59.066Z,23.19
2017-05-20T09:01:59.916Z,23.2
2017-05-20T09:02:59.739Z,23.25
2017-05-20T09:03:59.455Z,23.4
2017-05-20T09:04:59.493Z,23.33
2017-05-20T09:05:59.504Z,23.28
2017-05-20T09:06:59.794Z,23.33
2017-05-20T09:07:59.878Z,23.31
2017-05-20T09:08:59.908Z,23.32
2017-05-20T09:09:59.937Z,23.38
2017-05-20T09:10:59.405Z,23.36
2017-05-20T09:12:00.242Z,23.35
2017-05-20T09:12:59.708Z,23.31
2017-05-20T09:13:59.764Z,23.28
2017-05-20T09:15:00.080Z,23.33
2017-05-20T09:15:59.790Z,23.35
2017-05-20T09:17:00.330Z,23.35
2017-05-20T09:18:00.154Z,23.28
2017-05-20T09:19:00.187Z,23.28
2017-05-20T09:19:59.901Z,23.25
2017-05-20T09:20:59.930Z,23.25
2017-05-20T09:22:00.502Z,23.33
2017-05-20T09:22:59.666Z,23.35
2017-05-20T09:24:00.323Z,23.35
2017-05-20T09:25:00.353Z,23.4
2017-05-20T09:26:00.378Z,23.42
2017-05-20T09:27:00.606Z,23.36
2017-05-20T09:28:00.123Z,23.39
2017-05-20T09:29:00.458Z,23.36
2017-05-20T09:30:00.493Z,23.36
2017-05-20T09:31:00.512Z,23.35
2017-05-20T09:32:00.747Z,23.36
2017-05-20T09:33:00.582Z,23.32
2017-05-20T09:34:00.603Z,23.28
2017-05-20T09:35:00.629Z,23.28
2017-05-20T09:36:00.652Z,23.25
2017-05-20T09:37:00.931Z,23.23
2017-05-20T09:38:00.709Z,23.27
2017-05-20T09:39:00.420Z,23.28
2017-05-20T09:40:00.792Z,23.23
2017-05-20T09:41:00.165Z,23.23
2017-05-20T09:42:01.073Z,23.23
2017-05-20T09:43:00.530Z,23.27
2017-05-20T09:44:00.879Z,23.23
2017-05-20T09:45:00.600Z,23.25
2017-05-20T09:46:00.924Z,23.39
2017-05-20T09:47:00.901Z,23.28
2017-05-20T09:48:00.670Z,23.32
2017-05-20T09:49:01.014Z,23.35
2017-05-20T09:50:00.731Z,23.31
2017-05-20T09:51:01.072Z,23.33
2017-05-20T09:52:01.036Z,23.36
2017-05-20T09:53:01.134Z,23.35
2017-05-20T09:54:00.531Z,23.38
2017-05-20T09:55:01.183Z,23.4
2017-05-20T09:56:00.897Z,23.36
2017-05-20T09:57:01.486Z,23.46
2017-05-20T09:58:01.265Z,23.46
2017-05-20T09:59:00.667Z,23.48
2017-05-20T10:00:01.007Z,23.43
2017-05-20T10:01:01.349Z,23.46
2017-05-20T10:02:00.750Z,23.53
2017-05-20T10:03:01.401Z,23.46
2017-05-20T10:04:01.120Z,23.51
2017-05-20T10:05:01.461Z,23.53
2017-05-20T10:06:01.171Z,23.54
2017-05-20T10:07:01.521Z,23.53
2017-05-20T10:08:01.226Z,23.51
2017-05-20T10:09:01.260Z,23.5
2017-05-20T10:10:01.604Z,23.46
2017-05-20T10:11:01.623Z,23.42
2017-05-20T10:12:01.650Z,23.47
2017-05-20T10:13:01.674Z,23.47
2017-05-20T10:14:01.705Z,23.53
2017-05-20T10:15:01.734Z,23.46
2017-05-20T10:16:01.765Z,23.5
2017-05-20T10:17:01.793Z,23.47
2017-05-20T10:18:01.818Z,23.42
2017-05-20T10:19:01.846Z,23.42
2017-05-20T10:20:01.563Z,23.48
2017-05-20T10:21:01.899Z,23.43
2017-05-20T10:22:01.931Z,23.47
2017-05-20T10:23:01.953Z,23.48
2017-05-20T10:24:01.683Z,23.48
2017-05-20T10:25:02.015Z,23.43
2017-05-20T10:26:02.044Z,23.47
2017-05-20T10:27:01.757Z,23.42
2017-05-20T10:28:02.093Z,23.47
2017-05-20T10:29:02.135Z,23.53
2017-05-20T10:30:02.156Z,23.51
2017-05-20T10:31:01.559Z,23.48
2017-05-20T10:32:01.895Z,23.4
2017-05-20T10:33:01.941Z,23.47
2017-05-20T10:34:01.948Z,23.46
2017-05-20T10:35:01.691Z,23.48
2017-05-20T10:36:02.316Z,23.38
2017-05-20T10:37:02.349Z,23.5
2017-05-20T10:38:02.373Z,23.47
2017-05-20T10:39:02.409Z,23.43
2017-05-20T10:40:02.115Z,23.48
2017-05-20T10:41:02.464Z,23.5
2017-05-20T10:42:02.172Z,23.47
2017-05-20T10:43:02.455Z,23.47
2017-05-20T10:44:02.546Z,23.47
2017-05-20T10:45:02.248Z,23.5
2017-05-20T10:46:02.292Z,23.5
2017-05-20T10:47:02.314Z,23.46
2017-05-20T10:48:02.536Z,23.53
2017-05-20T10:49:02.687Z,23.51
2017-05-20T10:50:02.716Z,23.55
2017-05-20T10:51:02.741Z,23.55
2017-05-20T10:52:02.765Z,23.51
2017-05-20T10:53:03.046Z,23.58
2017-05-20T10:54:02.818Z,23.55
2017-05-20T10:55:02.542Z,23.65
2017-05-20T10:56:02.883Z,23.68
2017-05-20T10:57:02.600Z,23.7
2017-05-20T10:58:03.126Z,23.7
2017-05-20T10:59:02.963Z,23.75
2017-05-20T11:00:02.991Z,23.73
2017-05-20T11:01:03.020Z,23.78
2017-05-20T11:02:02.741Z,23.7
2017-05-20T11:03:03.329Z,23.68
2017-05-20T11:04:02.798Z,23.72
2017-05-20T11:05:03.130Z,23.7
2017-05-20T11:06:03.152Z,23.75
2017-05-20T11:07:02.561Z,23.75
2017-05-20T11:08:03.154Z,23.66
2017-05-20T11:09:02.980Z,23.75
2017-05-20T11:10:03.269Z,23.73
2017-05-20T11:11:03.303Z,23.7
2017-05-20T11:12:03.323Z,23.68
2017-05-20T11:13:03.603Z,23.75
2017-05-20T11:14:03.065Z,23.69
2017-05-20T11:15:03.417Z,23.63
2017-05-20T11:16:03.132Z,23.72
2017-05-20T11:17:03.467Z,23.63
2017-05-20T11:18:03.377Z,23.63
2017-05-20T11:19:03.206Z,23.61
2017-05-20T11:20:03.550Z,23.6
2017-05-20T11:21:03.264Z,23.63
2017-05-20T11:22:02.983Z,23.55
2017-05-20T11:23:03.010Z,23.55
2017-05-20T11:24:03.671Z,23.55
2017-05-20T11:25:03.690Z,23.57
2017-05-20T11:26:03.408Z,23.55
2017-05-20T11:27:03.743Z,23.54
2017-05-20T11:28:03.773Z,23.53
2017-05-20T11:29:03.495Z,23.57
2017-05-20T11:30:03.210Z,23.57
2017-05-20T11:31:03.859Z,23.57
2017-05-20T11:32:03.885Z,23.54
2017-05-20T11:33:03.913Z,23.6
2017-05-20T11:34:03.942Z,23.61
2017-05-20T11:35:03.657Z,23.57
2017-05-20T11:36:04.000Z,23.66
2017-05-20T11:37:04.021Z,23.66
2017-05-20T11:38:03.737Z,23.69
2017-05-20T11:39:03.778Z,23.76
2017-05-20T11:40:03.802Z,23.7
2017-05-20T11:41:04.140Z,23.8
2017-05-20T11:42:03.848Z,23.87
2017-05-20T11:43:03.889Z,23.95
2017-05-20T11:44:04.218Z,24.02
2017-05-20T11:45:04.251Z,24.03
2017-05-20T11:46:04.271Z,24.15
2017-05-20T11:47:03.993Z,24.2
2017-05-20T11:48:04.029Z,24.21
2017-05-20T11:49:04.364Z,24.25
2017-05-20T11:50:04.395Z,24.28
2017-05-20T11:51:04.420Z,24.24
2017-05-20T11:52:04.441Z,24.28
2017-05-20T11:53:04.473Z,24.24
2017-05-20T11:54:04.506Z,24.31
2017-05-20T11:55:04.535Z,24.18
2017-05-20T11:56:04.255Z,24.24
2017-05-20T11:57:04.592Z,24.1
2017-05-20T11:58:04.310Z,24.15
2017-05-20T11:59:04.654Z,24.1
2017-05-20T12:00:04.678Z,24.03
2017-05-20T12:01:04.707Z,24.06
2017-05-20T12:02:04.727Z,23.98
2017-05-20T12:03:04.454Z,23.95
2017-05-20T12:04:04.789Z,23.93
2017-05-20T12:05:04.821Z,23.84
2017-05-20T12:06:04.530Z,23.87
2017-05-20T12:07:04.565Z,23.9
2017-05-20T12:08:04.588Z,23.87
2017-05-20T12:09:04.929Z,23.84
2017-05-20T12:10:04.961Z,23.91
2017-05-20T12:11:04.981Z,23.9
2017-05-20T12:12:04.704Z,23.8
2017-05-20T12:13:04.732Z,23.75
2017-05-20T12:14:04.753Z,23.8
2017-05-20T12:15:05.093Z,23.76
2017-05-20T12:16:05.131Z,23.7
2017-05-20T12:17:04.535Z,23.83
2017-05-20T12:18:04.869Z,23.7
2017-05-20T12:19:05.213Z,23.72
2017-05-20T12:20:05.234Z,23.69
2017-05-20T12:21:05.275Z,23.69
2017-05-20T12:22:05.293Z,23.69
2017-05-20T12:23:05.323Z,23.69
2017-05-20T12:24:05.351Z,23.65
2017-05-20T12:25:05.378Z,23.66
2017-05-20T12:26:05.404Z,23.58
2017-05-20T12:27:05.121Z,23.55
2017-05-20T12:28:05.149Z,23.57
2017-05-20T12:29:05.489Z,23.55
2017-05-20T12:30:05.509Z,23.51
2017-05-20T12:31:05.538Z,23.5
2017-05-20T12:32:05.571Z,23.48
2017-05-20T12:33:05.605Z,23.5
2017-05-20T12:34:05.630Z,23.48
2017-05-20T12:35:05.347Z,23.47
2017-05-20T12:36:05.426Z,23.48
2017-05-20T12:37:05.399Z,23.47
2017-05-20T12:38:05.744Z,23.46
2017-05-20T12:39:05.797Z,23.42
2017-05-20T12:40:05.554Z,23.46
2017-05-20T12:41:05.510Z,23.42
2017-05-20T12:42:05.848Z,23.47
2017-05-20T12:43:05.884Z,23.46
2017-05-20T12:44:05.596Z,23.48
2017-05-20T12:45:05.622Z,23.5
2017-05-20T12:46:05.647Z,23.46
2017-05-20T12:47:05.987Z,23.53
2017-05-20T12:48:06.022Z,23.47
2017-05-20T12:49:06.048Z,23.48
2017-05-20T12:50:05.761Z,23.48
2017-05-20T12:51:06.110Z,23.53
2017-05-20T12:52:06.131Z,23.55
2017-05-20T12:53:06.160Z,23.63
2017-05-20T12:54:06.189Z,23.65
2017-05-20T12:55:05.912Z,23.7
2017-05-20T12:56:06.238Z,23.63